createdAt,value
2018-08-01T00:00:58.590Z,21.8
2018-08-01T00:01:58.338Z,21.7
2018-08-01T00:02:58.848Z,21.68
2018-08-01T00:03:58.872Z,21.71
2018-08-01T00:04:58.848Z,21.58
2018-08-01T00:05:58.855Z,21.56
2018-08-01T00:06:58.853Z,21.53
2018-08-01T00:07:58.849Z,21.48
2018-08-01T00:08:58.591Z,21.56
2018-08-01T00:09:58.589Z,21.43
2018-08-01T00:10:58.338Z,21.31
2018-08-01T00:11:58.601Z,21.34
2018-08-01T00:12:58.592Z,21.37
2018-08-01T00:13:58.849Z,21.41
2018-08-01T00:14:58.595Z,21.41
2018-08-01T00:15:58.845Z,21.38
2018-08-01T00:16:58.849Z,21.4
2018-08-01T00:17:58.853Z,21.37
2018-08-01T00:18:58.848Z,21.41
2018-08-01T00:19:58.593Z,21.46
2018-08-01T00:20:58.851Z,21.38
2018-08-01T00:21:58.339Z,21.4
2018-08-01T00:22:58.844Z,21.22
2018-08-01T00:23:58.852Z,21.28
2018-08-01T00:24:58.849Z,21.3
2018-08-01T00:25:58.593Z,21.34
2018-08-01T00:26:58.592Z,21.37
2018-08-01T00:27:58.845Z,21.36
2018-08-01T00:28:58.859Z,21.41
2018-08-01T00:29:58.846Z,21.4
2018-08-01T00:30:58.902Z,21.41
2018-08-01T00:31:58.597Z,21.41
2018-08-01T00:32:58.847Z,21.34
2018-08-01T00:33:58.847Z,21.38
2018-08-01T00:34:58.596Z,21.4
2018-08-01T00:35:58.846Z,21.4
2018-08-01T00:36:58.845Z,21.38
2018-08-01T00:37:58.850Z,21.43
2018-08-01T00:38:58.338Z,21.38
2018-08-01T00:39:58.852Z,21.38
2018-08-01T00:40:58.848Z,21.38
2018-08-01T00:41:58.593Z,21.38
2018-08-01T00:42:58.588Z,21.41
2018-08-01T00:43:58.857Z,21.4
2018-08-01T00:44:58.854Z,21.38
2018-08-01T00:45:58.850Z,21.36
2018-08-01T00:46:58.843Z,21.36
2018-08-01T00:47:58.844Z,21.4
2018-08-01T00:48:58.847Z,21.28
2018-08-01T00:49:58.588Z,21.27
2018-08-01T00:50:58.331Z,21.27
2018-08-01T00:51:58.846Z,21.3
2018-08-01T00:52:58.587Z,21.3
2018-08-01T00:53:58.589Z,21.27
2018-08-01T00:54:58.330Z,21.19
2018-08-01T00:55:58.841Z,21.18
2018-08-01T00:56:58.631Z,21.25
2018-08-01T00:57:58.839Z,21.18
2018-08-01T00:58:58.842Z,21.16
2018-08-01T00:59:58.581Z,21.16
2018-08-01T01:00:58.842Z,21.22
2018-08-01T01:01:58.848Z,21.16
2018-08-01T01:02:58.582Z,21.13
2018-08-01T01:03:58.581Z,21.04
2018-08-01T01:04:58.845Z,21.04
2018-08-01T01:05:58.837Z,21.06
2018-08-01T01:06:58.325Z,21
2018-08-01T01:07:58.836Z,21.09
2018-08-01T01:08:58.578Z,21.03
2018-08-01T01:09:58.836Z,21.08
2018-08-01T01:10:58.578Z,21.08
2018-08-01T01:11:58.840Z,21.04
2018-08-01T01:12:58.836Z,21.01
2018-08-01T01:13:58.832Z,20.98
2018-08-01T01:14:58.575Z,21.04
2018-08-01T01:15:58.577Z,21
2018-08-01T01:16:58.575Z,20.97
2018-08-01T01:17:58.828Z,21.01
2018-08-01T01:18:58.830Z,21.01
2018-08-01T01:19:58.829Z,20.98
2018-08-01T01:20:58.826Z,20.9
2018-08-01T01:21:58.831Z,20.88
2018-08-01T01:22:58.823Z,20.9
2018-08-01T01:23:58.832Z,20.83
2018-08-01T01:24:58.829Z,20.83
2018-08-01T01:25:58.573Z,20.79
2018-08-01T01:26:58.827Z,20.81
2018-08-01T01:27:58.832Z,20.74
2018-08-01T01:28:58.827Z,20.72
2018-08-01T01:29:58.833Z,20.68
2018-08-01T01:30:58.571Z,20.75
2018-08-01T01:31:58.826Z,20.74
2018-08-01T01:32:59.040Z,20.71
2018-08-01T01:33:58.565Z,20.67
2018-08-01T01:34:58.573Z,20.67
2018-08-01T01:35:58.824Z,20.58
2018-08-01T01:36:58.820Z,20.58
2018-08-01T01:37:58.817Z,20.63
2018-08-01T01:38:58.817Z,20.57
2018-08-01T01:39:58.818Z,20.63
2018-08-01T01:40:58.817Z,20.6
2018-08-01T01:41:58.302Z,20.6
2018-08-01T01:42:58.558Z,20.56
2018-08-01T01:43:58.812Z,20.56
2018-08-01T01:44:58.813Z,20.54
2018-08-01T01:45:58.814Z,20.53
2018-08-01T01:46:58.817Z,20.51
2018-08-01T01:47:58.985Z,20.54
2018-08-01T01:48:58.809Z,20.48
2018-08-01T01:49:58.553Z,20.48
2018-08-01T01:50:58.810Z,20.44
2018-08-01T01:51:58.811Z,20.42
2018-08-01T01:52:58.808Z,20.49
2018-08-01T01:53:58.806Z,20.53
2018-08-01T01:54:58.807Z,20.42
2018-08-01T01:55:58.803Z,20.44
2018-08-01T01:56:58.800Z,20.42
2018-08-01T01:57:58.805Z,20.42
2018-08-01T01:58:58.797Z,20.42
2018-08-01T01:59:58.801Z,20.46
2018-08-01T02:00:58.797Z,20.42
2018-08-01T02:01:58.544Z,20.46
2018-08-01T02:02:58.544Z,20.42
2018-08-01T02:03:58.795Z,20.41
2018-08-01T02:04:58.791Z,20.42
2018-08-01T02:05:58.538Z,20.42
2018-08-01T02:06:58.793Z,20.46
2018-08-01T02:07:58.280Z,20.46
2018-08-01T02:08:58.796Z,20.4
2018-08-01T02:09:58.807Z,20.4
2018-08-01T02:10:58.787Z,20.41
2018-08-01T02:11:58.798Z,20.42
2018-08-01T02:12:58.788Z,20.37
2018-08-01T02:13:58.796Z,20.35
2018-08-01T02:14:58.530Z,20.3
2018-08-01T02:15:58.788Z,20.37
2018-08-01T02:16:58.786Z,20.29
2018-08-01T02:17:58.787Z,20.3
2018-08-01T02:18:58.529Z,20.27
2018-08-01T02:19:58.991Z,20.26
2018-08-01T02:20:58.525Z,20.2
2018-08-01T02:21:58.530Z,20.16
2018-08-01T02:22:58.524Z,20.18
2018-08-01T02:23:58.521Z,20.16
2018-08-01T02:24:58.780Z,20.07
2018-08-01T02:25:58.780Z,20.02
2018-08-01T02:26:58.520Z,20.02
2018-08-01T02:27:58.777Z,20.07
2018-08-01T02:28:58.773Z,20.01
2018-08-01T02:29:58.777Z,20.02
2018-08-01T02:30:58.779Z,20.04
2018-08-01T02:31:58.785Z,20.01
2018-08-01T02:32:58.521Z,20.05
2018-08-01T02:33:58.260Z,20.08
2018-08-01T02:34:58.769Z,20.07
2018-08-01T02:35:58.843Z,20.04
2018-08-01T02:36:58.522Z,20.04
2018-08-01T02:37:58.515Z,20.07
2018-08-01T02:38:58.763Z,20.02
2018-08-01T02:39:58.256Z,20.01
2018-08-01T02:40:58.767Z,20.08
2018-08-01T02:41:58.765Z,20
2018-08-01T02:42:58.759Z,19.98
2018-08-01T02:43:58.790Z,20.01
2018-08-01T02:44:58.507Z,20.07
2018-08-01T02:45:58.503Z,20.01
2018-08-01T02:46:58.504Z,20.02
2018-08-01T02:47:58.498Z,20.02
2018-08-01T02:48:58.754Z,20
2018-08-01T02:49:58.237Z,19.98
2018-08-01T02:50:58.492Z,19.98
2018-08-01T02:51:58.752Z,19.98
2018-08-01T02:52:58.747Z,19.98
2018-08-01T02:53:58.490Z,19.98
2018-08-01T02:54:58.740Z,19.89
2018-08-01T02:55:58.750Z,19.85
2018-08-01T02:56:58.748Z,19.93
2018-08-01T02:57:58.748Z,19.9
2018-08-01T02:58:58.739Z,19.87
2018-08-01T02:59:58.742Z,19.87
2018-08-01T03:00:58.739Z,19.86
2018-08-01T03:01:58.751Z,19.87
2018-08-01T03:02:58.478Z,19.87
2018-08-01T03:03:58.746Z,19.8
2018-08-01T03:04:58.481Z,19.82
2018-08-01T03:05:58.740Z,19.7
2018-08-01T03:06:58.484Z,19.68
2018-08-01T03:07:58.469Z,19.65
2018-08-01T03:08:58.731Z,19.72
2018-08-01T03:09:58.732Z,19.78
2018-08-01T03:10:58.720Z,19.61
2018-08-01T03:11:58.726Z,19.63
2018-08-01T03:12:58.717Z,19.5
2018-08-01T03:13:58.462Z,19.57
2018-08-01T03:14:58.462Z,19.57
2018-08-01T03:15:58.722Z,19.63
2018-08-01T03:16:58.201Z,19.61
2018-08-01T03:17:58.460Z,19.46
2018-08-01T03:18:58.715Z,19.5
2018-08-01T03:19:58.707Z,19.55
2018-08-01T03:20:58.712Z,19.52
2018-08-01T03:21:58.706Z,19.49
2018-08-01T03:22:58.448Z,19.49
2018-08-01T03:23:58.446Z,19.46
2018-08-01T03:24:58.189Z,19.43
2018-08-01T03:25:58.725Z,19.38
2018-08-01T03:26:58.702Z,19.4
2018-08-01T03:27:58.442Z,19.43
2018-08-01T03:28:58.696Z,19.34
2018-08-01T03:29:58.438Z,19.31
2018-08-01T03:30:58.690Z,19.34
2018-08-01T03:31:58.705Z,19.28
2018-08-01T03:32:58.428Z,19.2
2018-08-01T03:33:58.685Z,19.19
2018-08-01T03:34:58.442Z,19.19
2018-08-01T03:35:58.677Z,19.25
2018-08-01T03:36:58.486Z,19.24
2018-08-01T03:37:58.165Z,19.2
2018-08-01T03:38:58.675Z,19.17
2018-08-01T03:39:58.684Z,19.16
2018-08-01T03:40:58.672Z,19.19
2018-08-01T03:41:58.672Z,19.1
2018-08-01T03:42:58.673Z,19.12
2018-08-01T03:43:58.668Z,19.06
2018-08-01T03:44:58.668Z,19.05
2018-08-01T03:45:58.669Z,19.06
2018-08-01T03:46:58.406Z,19.05
2018-08-01T03:47:58.661Z,19.05
2018-08-01T03:48:58.409Z,19.05
2018-08-01T03:49:58.661Z,19.06
2018-08-01T03:50:58.653Z,19
2018-08-01T03:51:58.400Z,19.02
2018-08-01T03:52:58.813Z,18.97
2018-08-01T03:53:58.396Z,18.96
2018-08-01T03:54:58.136Z,18.99
2018-08-01T03:55:58.645Z,18.99
2018-08-01T03:56:58.646Z,18.93
2018-08-01T03:57:58.390Z,18.97
2018-08-01T03:58:58.128Z,18.94
2018-08-01T03:59:58.383Z,18.91
2018-08-01T04:00:58.392Z,18.91
2018-08-01T04:01:58.380Z,18.99
2018-08-01T04:02:58.634Z,18.96
2018-08-01T04:03:58.639Z,18.91
2018-08-01T04:04:58.120Z,18.9
2018-08-01T04:05:58.375Z,18.91
2018-08-01T04:06:58.369Z,18.97
2018-08-01T04:07:58.633Z,18.91
2018-08-01T04:08:58.369Z,18.94
2018-08-01T04:09:58.619Z,18.93
2018-08-01T04:10:58.107Z,19.02
2018-08-01T04:11:58.624Z,18.94
2018-08-01T04:12:58.360Z,19
2018-08-01T04:13:58.362Z,19.05
2018-08-01T04:14:58.617Z,18.99
2018-08-01T04:15:58.609Z,19.02
2018-08-01T04:16:58.605Z,19.02
2018-08-01T04:17:58.349Z,19.05
2018-08-01T04:18:58.605Z,19.07
2018-08-01T04:19:58.601Z,19.02
2018-08-01T04:20:58.083Z,19.17
2018-08-01T04:21:58.592Z,19.13
2018-08-01T04:22:58.601Z,19.15
2018-08-01T04:23:58.594Z,19.2
2018-08-01T04:24:58.595Z,19.3
2018-08-01T04:25:58.076Z,19.2
2018-08-01T04:26:58.416Z,19.24
2018-08-01T04:27:58.071Z,19.28
2018-08-01T04:28:58.584Z,19.37
2018-08-01T04:29:58.587Z,19.28
2018-08-01T04:30:58.575Z,19.27
2018-08-01T04:31:58.582Z,19.31
2018-08-01T04:32:58.660Z,19.34
2018-08-01T04:33:58.318Z,19.38
2018-08-01T04:34:58.058Z,19.37
2018-08-01T04:35:58.313Z,19.4
2018-08-01T04:36:58.312Z,19.37
2018-08-01T04:37:58.577Z,19.37
2018-08-01T04:38:58.310Z,19.31
2018-08-01T04:39:58.310Z,19.35
2018-08-01T04:40:58.561Z,19.4
2018-08-01T04:41:58.300Z,19.43
2018-08-01T04:42:58.554Z,19.55
2018-08-01T04:43:58.550Z,19.57
2018-08-01T04:44:58.293Z,19.55
2018-08-01T04:45:58.294Z,19.6
2018-08-01T04:46:58.294Z,19.6
2018-08-01T04:47:58.288Z,19.56
2018-08-01T04:48:58.289Z,19.63
2018-08-01T04:49:58.285Z,19.72
2018-08-01T04:50:58.283Z,19.71
2018-08-01T04:51:58.283Z,19.7
2018-08-01T04:52:58.281Z,19.79
2018-08-01T04:53:58.277Z,19.85
2018-08-01T04:54:58.536Z,19.85
2018-08-01T04:55:58.278Z,19.87
2018-08-01T04:56:58.531Z,19.97
2018-08-01T04:57:58.537Z,20.01
2018-08-01T04:58:58.529Z,20.11
2018-08-01T04:59:58.267Z,20.05
2018-08-01T05:00:58.526Z,20.11
2018-08-01T05:01:58.269Z,20.15
2018-08-01T05:02:58.526Z,20.2
2018-08-01T05:03:58.266Z,20.12
2018-08-01T05:04:58.261Z,20.25
2018-08-01T05:05:58.271Z,20.27
2018-08-01T05:06:58.529Z,20.37
2018-08-01T05:07:58.521Z,20.34
2018-08-01T05:08:58.519Z,20.37
2018-08-01T05:09:58.517Z,20.44
2018-08-01T05:10:58.511Z,20.44
2018-08-01T05:11:58.249Z,20.57
2018-08-01T05:12:58.249Z,20.57
2018-08-01T05:13:58.512Z,20.64
2018-08-01T05:14:58.292Z,20.74
2018-08-01T05:15:58.247Z,20.68
2018-08-01T05:16:58.500Z,20.75
2018-08-01T05:17:58.499Z,20.74
2018-08-01T05:18:58.498Z,20.78
2018-08-01T05:19:58.245Z,20.82
2018-08-01T05:20:58.239Z,20.81
2018-08-01T05:21:58.241Z,20.81
2018-08-01T05:22:58.241Z,20.86
2018-08-01T05:23:58.621Z,20.88
2018-08-01T05:24:58.237Z,20.83
2018-08-01T05:25:58.502Z,20.94
2018-08-01T05:26:58.234Z,20.9
2018-08-01T05:27:57.978Z,20.93
2018-08-01T05:28:58.231Z,20.83
2018-08-01T05:29:58.497Z,20.9
2018-08-01T05:30:58.233Z,20.82
2018-08-01T05:31:58.231Z,20.85
2018-08-01T05:32:58.492Z,20.83
2018-08-01T05:33:58.226Z,20.83
2018-08-01T05:34:58.228Z,20.74
2018-08-01T05:35:58.519Z,20.79
2018-08-01T05:36:58.225Z,20.76
2018-08-01T05:37:58.232Z,20.74
2018-08-01T05:38:58.223Z,20.64
2018-08-01T05:39:58.222Z,20.71
2018-08-01T05:40:58.221Z,20.63
2018-08-01T05:41:58.479Z,20.54
2018-08-01T05:42:58.483Z,20.53
2018-08-01T05:43:58.220Z,20.56
2018-08-01T05:44:58.221Z,20.44
2018-08-01T05:45:58.214Z,20.46
2018-08-01T05:46:58.471Z,20.46
2018-08-01T05:47:58.475Z,20.49
2018-08-01T05:48:58.221Z,20.53
2018-08-01T05:49:58.214Z,20.56
2018-08-01T05:50:58.714Z,20.53
2018-08-01T05:51:58.469Z,20.53
2018-08-01T05:52:58.210Z,20.6
2018-08-01T05:53:58.210Z,20.54
2018-08-01T05:54:58.475Z,20.63
2018-08-01T05:55:58.473Z,20.67
2018-08-01T05:56:58.222Z,20.74
2018-08-01T05:57:58.466Z,20.81
2018-08-01T05:58:58.460Z,20.9
2018-08-01T05:59:58.201Z,20.88
2018-08-01T06:00:58.205Z,20.97
2018-08-01T06:01:57.945Z,21.09
2018-08-01T06:02:58.452Z,21.06
2018-08-01T06:03:58.208Z,21.08
2018-08-01T06:04:58.459Z,21.06
2018-08-01T06:05:58.196Z,21.12
2018-08-01T06:06:58.198Z,21.18
2018-08-01T06:07:58.455Z,21.13
2018-08-01T06:08:58.195Z,21.19
2018-08-01T06:09:58.193Z,21.19
2018-08-01T06:10:58.193Z,21.15
2018-08-01T06:11:58.468Z,21.16
2018-08-01T06:12:58.193Z,21.16
2018-08-01T06:13:58.194Z,21.19
2018-08-01T06:14:58.238Z,21.3
2018-08-01T06:15:58.454Z,21.22
2018-08-01T06:16:58.190Z,21.3
2018-08-01T06:17:58.447Z,21.28
2018-08-01T06:18:58.455Z,21.31
2018-08-01T06:19:58.441Z,21.41
2018-08-01T06:20:58.187Z,21.34
2018-08-01T06:21:58.189Z,21.36
2018-08-01T06:22:58.457Z,21.38
2018-08-01T06:23:58.456Z,21.43
2018-08-01T06:24:58.192Z,21.41
2018-08-01T06:25:58.188Z,21.37
2018-08-01T06:26:58.440Z,21.28
2018-08-01T06:27:58.627Z,21.41
2018-08-01T06:28:58.485Z,21.37
2018-08-01T06:29:58.456Z,21.43
2018-08-01T06:30:58.443Z,21.46
2018-08-01T06:31:58.435Z,21.49
2018-08-01T06:32:58.437Z,21.58
2018-08-01T06:33:58.434Z,21.64
2018-08-01T06:34:58.179Z,21.64
2018-08-01T06:35:58.434Z,21.67
2018-08-01T06:36:58.435Z,21.64
2018-08-01T06:37:58.435Z,21.71
2018-08-01T06:38:58.446Z,21.8
2018-08-01T06:39:58.434Z,21.74
2018-08-01T06:40:58.435Z,21.7
2018-08-01T06:41:58.438Z,21.77
2018-08-01T06:42:58.438Z,21.7
2018-08-01T06:43:58.437Z,21.73
2018-08-01T06:44:58.432Z,21.86
2018-08-01T06:45:58.475Z,21.83
2018-08-01T06:46:58.290Z,22.04
2018-08-01T06:47:58.177Z,22.09
2018-08-01T06:48:58.434Z,22.18
2018-08-01T06:49:58.174Z,22.18
2018-08-01T06:50:58.432Z,22.27
2018-08-01T06:51:58.433Z,22.66
2018-08-01T06:52:58.429Z,22.96
2018-08-01T06:53:58.557Z,23.29
2018-08-01T06:54:58.433Z,23.63
2018-08-01T06:55:58.434Z,24.17
2018-08-01T06:56:58.433Z,24.69
2018-08-01T06:57:58.435Z,25.37
2018-08-01T06:58:58.436Z,26.19
2018-08-01T06:59:58.436Z,26.81
2018-08-01T07:00:58.433Z,27.46
2018-08-01T07:01:58.441Z,27.83
2018-08-01T07:02:58.439Z,28.26
2018-08-01T07:03:58.186Z,28.67
2018-08-01T07:04:58.446Z,28.98
2018-08-01T07:05:58.448Z,29.32
2018-08-01T07:06:58.768Z,29.61
2018-08-01T07:07:58.459Z,29.89
2018-08-01T07:08:58.456Z,30.21
2018-08-01T07:09:58.467Z,30.54
2018-08-01T07:10:58.472Z,30.7
2018-08-01T07:11:58.468Z,30.7
2018-08-01T07:12:58.486Z,30.81
2018-08-01T07:13:58.480Z,30.73
2018-08-01T07:14:58.743Z,30.99
2018-08-01T07:15:58.483Z,31.01
2018-08-01T07:16:58.505Z,31.13
2018-08-01T07:17:58.499Z,31.1
2018-08-01T07:18:58.495Z,31.12
2018-08-01T07:19:58.242Z,31.25
2018-08-01T07:20:58.507Z,31.37
2018-08-01T07:21:58.516Z,31.36
2018-08-01T07:22:58.522Z,31.41
2018-08-01T07:23:58.525Z,31.38
2018-08-01T07:24:58.528Z,31.45
2018-08-01T07:25:58.537Z,31.67
2018-08-01T07:26:58.282Z,31.74
2018-08-01T07:27:58.698Z,31.9
2018-08-01T07:28:58.289Z,31.88
2018-08-01T07:29:58.587Z,32.05
2018-08-01T07:30:58.564Z,32.03
2018-08-01T07:31:58.313Z,32.17
2018-08-01T07:32:58.581Z,32.47
2018-08-01T07:33:58.586Z,32.64
2018-08-01T07:34:58.334Z,32.37
2018-08-01T07:35:58.348Z,32.35
2018-08-01T07:36:58.349Z,32.24
2018-08-01T07:37:58.359Z,32.24
2018-08-01T07:38:58.101Z,32.38
2018-08-01T07:39:58.365Z,32.57
2018-08-01T07:40:58.626Z,32.57
2018-08-01T07:41:58.380Z,32.5
2018-08-01T07:42:58.563Z,32.37
2018-08-01T07:43:58.408Z,32.38
2018-08-01T07:44:58.661Z,32.59
2018-08-01T07:45:58.409Z,32.59
2018-08-01T07:46:58.686Z,32.72
2018-08-01T07:47:58.421Z,32.96
2018-08-01T07:48:58.427Z,33.01
2018-08-01T07:49:58.544Z,33.2
2018-08-01T07:50:58.455Z,33.17
2018-08-01T07:51:58.489Z,33.12
2018-08-01T07:52:58.467Z,32.91
2018-08-01T07:53:58.478Z,32.9
2018-08-01T07:54:58.481Z,32.8
2018-08-01T07:55:58.480Z,32.91
2018-08-01T07:56:58.754Z,32.83
2018-08-01T07:57:58.753Z,32.94
2018-08-01T07:58:58.766Z,32.81
2018-08-01T07:59:58.764Z,32.81
2018-08-01T08:00:58.771Z,32.93
2018-08-01T08:01:58.782Z,32.81
2018-08-01T08:02:58.528Z,32.72
2018-08-01T08:03:58.534Z,32.61
2018-08-01T08:04:58.803Z,32.42
2018-08-01T08:05:58.294Z,32.2
2018-08-01T08:06:58.554Z,31.8
2018-08-01T08:07:58.560Z,31.37
2018-08-01T08:08:58.569Z,31.23
2018-08-01T08:09:58.576Z,31.01
2018-08-01T08:10:58.329Z,30.82
2018-08-01T08:11:58.586Z,30.62
2018-08-01T08:12:58.337Z,30.51
2018-08-01T08:13:58.858Z,30.18
2018-08-01T08:14:58.601Z,29.77
2018-08-01T08:15:58.608Z,29.6
2018-08-01T08:16:58.873Z,29.28
2018-08-01T08:17:58.617Z,29.11
2018-08-01T08:18:58.884Z,28.9
2018-08-01T08:19:58.900Z,28.68
2018-08-01T08:20:58.378Z,28.42
2018-08-01T08:21:58.898Z,28.21
2018-08-01T08:22:58.901Z,28.2
2018-08-01T08:23:58.904Z,28.14
2018-08-01T08:24:58.915Z,28.03
2018-08-01T08:25:58.404Z,27.9
2018-08-01T08:26:58.923Z,27.81
2018-08-01T08:27:58.415Z,27.8
2018-08-01T08:28:58.933Z,27.8
2018-08-01T08:29:58.944Z,27.75
2018-08-01T08:30:59.033Z,27.71
2018-08-01T08:31:58.947Z,27.59
2018-08-01T08:32:58.693Z,27.46
2018-08-01T08:33:58.700Z,27.36
2018-08-01T08:34:58.962Z,27.3
2018-08-01T08:35:58.963Z,27.38
2018-08-01T08:36:58.758Z,27.33
2018-08-01T08:37:58.971Z,27.48
2018-08-01T08:38:58.995Z,27.48
2018-08-01T08:39:58.983Z,27.64
2018-08-01T08:40:58.730Z,27.68
2018-08-01T08:41:58.745Z,27.71
2018-08-01T08:42:58.739Z,27.66
2018-08-01T08:43:59.001Z,27.61
2018-08-01T08:44:58.494Z,27.65
2018-08-01T08:45:59.010Z,27.65
2018-08-01T08:46:58.758Z,27.66
2018-08-01T08:47:59.014Z,27.74
2018-08-01T08:48:58.647Z,27.8
2018-08-01T08:49:59.031Z,27.89
2018-08-01T08:50:59.031Z,28.02
2018-08-01T08:51:59.033Z,27.94
2018-08-01T08:52:59.040Z,28.05
2018-08-01T08:53:58.869Z,28.03
2018-08-01T08:54:59.175Z,28.16
2018-08-01T08:55:58.792Z,28.23
2018-08-01T08:56:59.057Z,28.23
2018-08-01T08:57:58.801Z,28.28
2018-08-01T08:58:58.812Z,28.33
2018-08-01T08:59:58.841Z,28.45
2018-08-01T09:00:58.562Z,28.57
2018-08-01T09:01:59.084Z,28.61
2018-08-01T09:02:59.085Z,28.61
2018-08-01T09:03:58.828Z,28.64
2018-08-01T09:04:58.831Z,28.57
2018-08-01T09:05:59.096Z,28.6
2018-08-01T09:06:59.111Z,28.55
2018-08-01T09:07:58.591Z,28.65
2018-08-01T09:08:59.107Z,28.72
2018-08-01T09:09:58.854Z,28.61
2018-08-01T09:10:58.605Z,28.63
2018-08-01T09:11:58.867Z,28.64
2018-08-01T09:12:59.129Z,28.75
2018-08-01T09:13:59.133Z,28.75
2018-08-01T09:14:59.151Z,28.82
2018-08-01T09:15:59.143Z,28.8
2018-08-01T09:16:59.150Z,28.86
2018-08-01T09:17:58.897Z,28.82
2018-08-01T09:18:58.906Z,28.95
2018-08-01T09:19:59.163Z,28.97
2018-08-01T09:20:58.927Z,29.03
2018-08-01T09:21:58.916Z,29.11
2018-08-01T09:22:59.179Z,29.05
2018-08-01T09:23:58.923Z,29.23
2018-08-01T09:24:58.928Z,29.23
2018-08-01T09:25:59.191Z,29.28
2018-08-01T09:26:59.192Z,29.13
2018-08-01T09:27:58.688Z,29.26
2018-08-01T09:28:59.203Z,29.14
2018-08-01T09:29:58.952Z,29.15
2018-08-01T09:30:59.218Z,29.13
2018-08-01T09:31:59.217Z,29.06
2018-08-01T09:32:59.226Z,29.1
2018-08-01T09:33:58.746Z,29.11
2018-08-01T09:34:59.234Z,29.11
2018-08-01T09:35:59.238Z,29.03
2018-08-01T09:36:59.251Z,29.13
2018-08-01T09:37:58.990Z,29.1
2018-08-01T09:38:59.251Z,29.2
2018-08-01T09:39:59.258Z,29.28
2018-08-01T09:40:59.055Z,29.21
2018-08-01T09:41:59.269Z,29.24
2018-08-01T09:42:59.016Z,29.29
2018-08-01T09:43:59.275Z,29.32
2018-08-01T09:44:59.288Z,29.38
2018-08-01T09:45:59.035Z,29.45
2018-08-01T09:46:59.293Z,29.54
2018-08-01T09:47:59.294Z,29.57
2018-08-01T09:48:59.301Z,29.47
2018-08-01T09:49:59.304Z,29.45
2018-08-01T09:50:59.314Z,29.35
2018-08-01T09:51:59.323Z,29.42
2018-08-01T09:52:59.805Z,29.48
2018-08-01T09:53:59.411Z,29.51
2018-08-01T09:55:01.946Z,29.57
2018-08-01T09:56:01.660Z,29.66
2018-08-01T09:56:59.655Z,29.61
2018-08-01T09:57:59.099Z,29.65
2018-08-01T09:58:58.842Z,29.63
2018-08-01T09:59:59.360Z,29.57
2018-08-01T10:00:59.370Z,29.57
2018-08-01T10:01:59.209Z,29.57
2018-08-01T10:02:59.380Z,29.69
2018-08-01T10:03:59.381Z,29.69
2018-08-01T10:04:59.387Z,29.73
2018-08-01T10:05:59.402Z,29.75
2018-08-01T10:06:59.399Z,29.89
2018-08-01T10:07:59.403Z,29.94
2018-08-01T10:08:59.153Z,29.85
2018-08-01T10:09:59.413Z,29.91
2018-08-01T10:10:59.166Z,29.88
2018-08-01T10:11:59.430Z,29.84
2018-08-01T10:12:59.173Z,30.03
2018-08-01T10:13:59.448Z,30.1
2018-08-01T10:14:59.185Z,30.03
2018-08-01T10:15:59.451Z,30.09
2018-08-01T10:16:59.206Z,30.18
2018-08-01T10:17:59.457Z,30.19
2018-08-01T10:18:59.206Z,30.25
2018-08-01T10:19:59.483Z,30.25
2018-08-01T10:20:59.290Z,30.26
2018-08-01T10:21:59.480Z,30.31
2018-08-01T10:22:59.494Z,30.18
2018-08-01T10:23:59.493Z,30.18
2018-08-01T10:24:59.501Z,30.16
2018-08-01T10:25:58.990Z,30.35
2018-08-01T10:26:59.808Z,30.25
2018-08-01T10:27:59.513Z,30.18
2018-08-01T10:28:59.521Z,30.24
2018-08-01T10:29:59.024Z,30.32
2018-08-01T10:30:59.276Z,30.21
2018-08-01T10:31:59.545Z,30.18
2018-08-01T10:32:59.550Z,30.13
2018-08-01T10:33:59.300Z,30.19
2018-08-01T10:34:59.301Z,30.19
2018-08-01T10:35:59.572Z,30.19
2018-08-01T10:36:59.566Z,30.16
2018-08-01T10:37:59.577Z,30.1
2018-08-01T10:38:59.578Z,30.21
2018-08-01T10:39:59.328Z,30.16
2018-08-01T10:40:59.610Z,30.16
2018-08-01T10:41:59.606Z,30.16
2018-08-01T10:42:59.798Z,30.14
2018-08-01T10:43:59.099Z,30.26
2018-08-01T10:44:59.617Z,30.32
2018-08-01T10:45:59.172Z,30.19
2018-08-01T10:46:59.628Z,30.24
2018-08-01T10:47:59.631Z,30.29
2018-08-01T10:48:59.383Z,30.48
2018-08-01T10:49:59.646Z,30.4
2018-08-01T10:51:00.018Z,30.57
2018-08-01T10:51:59.655Z,30.66
2018-08-01T10:52:59.673Z,30.67
2018-08-01T10:53:59.532Z,30.69
2018-08-01T10:54:59.678Z,30.64
2018-08-01T10:55:59.434Z,30.57
2018-08-01T10:56:59.700Z,30.56
2018-08-01T10:57:59.702Z,30.54
2018-08-01T10:58:59.700Z,30.52
2018-08-01T10:59:59.705Z,30.56
2018-08-01T11:00:59.464Z,30.57
2018-08-01T11:01:59.716Z,30.44
2018-08-01T11:02:59.733Z,30.26
2018-08-01T11:03:59.218Z,30.21
2018-08-01T11:04:59.534Z,30.22
2018-08-01T11:05:59.485Z,30.16
2018-08-01T11:06:59.748Z,30.18
2018-08-01T11:07:59.496Z,30.1
2018-08-01T11:08:59.762Z,30.02
2018-08-01T11:09:59.511Z,29.98
2018-08-01T11:10:59.259Z,30
2018-08-01T11:11:59.524Z,30.06
2018-08-01T11:12:59.529Z,30.07
2018-08-01T11:13:59.789Z,30.18
2018-08-01T11:14:59.798Z,30.18
2018-08-01T11:15:59.549Z,30.19
2018-08-01T11:16:59.551Z,30.21
2018-08-01T11:18:00.270Z,30.25
2018-08-01T11:18:59.567Z,30.21
2018-08-01T11:19:59.822Z,30.19
2018-08-01T11:20:59.882Z,30.18
2018-08-01T11:21:59.981Z,30.21
2018-08-01T11:22:59.585Z,30.22
2018-08-01T11:23:59.335Z,30.29
2018-08-01T11:24:59.852Z,30.32
2018-08-01T11:25:59.606Z,30.34
2018-08-01T11:26:59.862Z,30.45
2018-08-01T11:27:59.871Z,30.47
2018-08-01T11:28:59.931Z,30.54
2018-08-01T11:29:59.880Z,30.57
2018-08-01T11:30:59.629Z,30.57
2018-08-01T11:31:59.896Z,30.63
2018-08-01T11:32:59.903Z,30.66
2018-08-01T11:33:59.910Z,30.69
2018-08-01T11:34:59.912Z,30.67
2018-08-01T11:35:59.926Z,30.67
2018-08-01T11:36:59.672Z,30.64
2018-08-01T11:37:59.940Z,30.6
2018-08-01T11:38:59.941Z,30.67
2018-08-01T11:39:59.950Z,30.57
2018-08-01T11:40:59.952Z,30.49
2018-08-01T11:41:59.444Z,30.49
2018-08-01T11:42:59.706Z,30.48
2018-08-01T11:43:59.713Z,30.54
2018-08-01T11:44:59.980Z,30.59
2018-08-01T11:45:59.976Z,30.64
2018-08-01T11:46:59.730Z,30.73
2018-08-01T11:47:59.996Z,30.7
2018-08-01T11:49:00.000Z,30.57
2018-08-01T11:50:00.144Z,30.39
2018-08-01T11:51:00.011Z,30.42
2018-08-01T11:52:00.018Z,30.42
2018-08-01T11:53:00.025Z,30.49
2018-08-01T11:54:00.024Z,30.56
2018-08-01T11:54:59.795Z,30.51
2018-08-01T11:56:00.063Z,30.47
2018-08-01T11:57:00.195Z,30.54
2018-08-01T11:58:00.052Z,30.52
2018-08-01T11:58:59.805Z,30.47
2018-08-01T12:00:00.076Z,30.44
2018-08-01T12:01:00.073Z,30.4
2018-08-01T12:01:59.938Z,30.45
2018-08-01T12:03:00.085Z,30.44
2018-08-01T12:03:59.833Z,30.48
2018-08-01T12:05:00.110Z,30.44
2018-08-01T12:05:59.849Z,30.44
2018-08-01T12:06:59.598Z,30.35
2018-08-01T12:07:59.861Z,30.37
2018-08-01T12:09:00.125Z,30.21
2018-08-01T12:09:59.869Z,30.28
2018-08-01T12:10:59.623Z,30.21
2018-08-01T12:11:59.628Z,30.19
2018-08-01T12:12:59.633Z,30.21
2018-08-01T12:14:00.153Z,30.28
2018-08-01T12:15:00.017Z,30.29
2018-08-01T12:16:00.163Z,30.35
2018-08-01T12:17:00.172Z,30.37
2018-08-01T12:17:59.922Z,30.34
2018-08-01T12:19:00.184Z,30.22
2018-08-01T12:19:59.934Z,30.18
2018-08-01T12:21:00.198Z,30.14
2018-08-01T12:22:00.208Z,30.06
2018-08-01T12:22:59.954Z,29.97
2018-08-01T12:23:59.960Z,29.98
2018-08-01T12:24:59.960Z,29.97
2018-08-01T12:26:00.228Z,29.94
2018-08-01T12:27:00.233Z,29.88
2018-08-01T12:27:59.986Z,29.91
2018-08-01T12:28:59.985Z,29.89
2018-08-01T12:29:59.989Z,29.81
2018-08-01T12:30:59.743Z,29.76
2018-08-01T12:32:00.263Z,29.75
2018-08-01T12:33:00.267Z,29.75
2018-08-01T12:33:59.760Z,29.79
2018-08-01T12:35:00.026Z,29.73
2018-08-01T12:36:00.284Z,29.87
2018-08-01T12:37:00.290Z,29.91
2018-08-01T12:38:00.297Z,29.76
2018-08-01T12:39:00.050Z,29.6
2018-08-01T12:40:00.053Z,29.52
2018-08-01T12:41:00.056Z,29.51
2018-08-01T12:42:00.195Z,29.38
2018-08-01T12:42:59.814Z,29.48
2018-08-01T12:44:00.346Z,29.47
2018-08-01T12:45:00.082Z,29.3
2018-08-01T12:46:00.345Z,29.26
2018-08-01T12:47:00.348Z,29.11
2018-08-01T12:48:00.350Z,28.97
2018-08-01T12:49:00.509Z,28.97
2018-08-01T12:50:00.366Z,29.03
2018-08-01T12:51:00.116Z,29.1
2018-08-01T12:51:59.864Z,29.11
2018-08-01T12:53:00.126Z,29.2
2018-08-01T12:54:00.394Z,29.24
2018-08-01T12:55:00.406Z,29.36
2018-08-01T12:56:00.142Z,29.45
2018-08-01T12:57:00.150Z,29.6